Blaine Lake, Canada
Current Conditions -  °F | °C
As of 10:00 PM on Tuesday 25 Nov 2014 (Local Time) from CYXE Reporting Station
Light Snow Light Snow  
Wind Chill:   Ceiling: 2400
Heat Index:   Visibility: 15mi
Dew Point:   Wind: 0mph
Humidity: 85%   Direction: NA
Pressure: 30.28"   Gusts: NA
Location:  52.83°N, 106.88°W
Report Text: CYXE 260400Z 00000KT 15SM -SN BKN024 OVC090 M16/M18 A3028 RMK SC6AC2 SLP299
Loading
Personal Weather Stations






























Interactive Weather Map New forecast layout! Learn more

10-Day Weather Forecast

Advertisements
Track Severe Weather on mobile